Time;durP1;ratioP1;P1;durP2;ratioP2;P2;SDS_P1;SDS_P2;PMS_P1;PMS_P2;Temp;Humidity;BMP_temperature;BMP_pressure;BME280_temperature;BME280_humidity;BME280_pressure;Samples;Min_cycle;Max_cycle;Signal;HPM_P1;HPM_P2
2023/12/26 00:00:37;;;;;;;5.70;2.00;;;;;;;10.77;100.00;100447.19;5096494;28;20058;-66
2023/12/26 00:03:25;;;;;;;3.42;1.85;;;;;;;10.75;100.00;100449.38;5113636;28;20061;-66
2023/12/26 00:06:18;;;;;;;3.80;1.73;;;;;;;10.74;100.00;100447.75;5086272;28;20097;-65
2023/12/26 00:09:06;;;;;;;5.93;2.08;;;;;;;10.70;100.00;100452.94;5092891;28;20036;-65
2023/12/26 00:11:54;;;;;;;3.65;1.60;;;;;;;10.69;100.00;100447.78;5085004;28;20037;-66
2023/12/26 00:14:42;;;;;;;3.17;1.70;;;;;;;10.69;100.00;100445.88;5060650;28;20127;-63
2023/12/26 00:17:30;;;;;;;2.88;1.55;;;;;;;10.66;100.00;100444.53;5093423;28;20055;-64
2023/12/26 00:20:19;;;;;;;4.32;1.90;;;;;;;10.66;100.00;100446.44;5079175;28;20040;-65
2023/12/26 00:23:07;;;;;;;4.53;1.80;;;;;;;10.68;100.00;100443.41;5078541;28;20036;-65
2023/12/26 00:25:55;;;;;;;2.08;1.35;;;;;;;10.65;100.00;100440.19;5078151;28;20535;-65
2023/12/26 00:28:43;;;;;;;1.73;1.10;;;;;;;10.66;100.00;100447.25;5092247;28;20044;-66
2023/12/26 00:31:31;;;;;;;2.85;1.55;;;;;;;10.64;100.00;100435.00;5078937;28;20174;-66
2023/12/26 00:34:20;;;;;;;1.83;1.20;;;;;;;10.65;100.00;100439.34;5077120;28;20032;-66
2023/12/26 00:37:09;;;;;;;3.88;1.48;;;;;;;10.64;100.00;100443.97;5093478;28;20117;-64
2023/12/26 00:39:57;;;;;;;2.75;1.48;;;;;;;10.63;100.00;100452.41;5076365;28;20078;-66
2023/12/26 00:42:49;;;;;;;3.53;1.80;;;;;;;10.66;100.00;100449.97;5074622;28;20040;-65
2023/12/26 00:45:37;;;;;;;3.35;1.60;;;;;;;10.65;100.00;100439.34;5093652;28;20056;-66
2023/12/26 00:48:25;;;;;;;1.63;1.27;;;;;;;10.63;100.00;100457.88;5062480;28;20128;-66
2023/12/26 00:51:13;;;;;;;3.08;1.42;;;;;;;10.65;100.00;100456.53;5077536;28;20695;-67
2023/12/26 00:54:02;;;;;;;2.45;1.25;;;;;;;10.63;100.00;100455.13;5078012;28;20243;-67
2023/12/26 00:56:50;;;;;;;3.03;1.30;;;;;;;10.62;100.00;100467.94;5112957;28;20188;-67
2023/12/26 00:59:41;;;;;;;2.00;1.30;;;;;;;10.60;100.00;100459.25;5092841;28;20432;-66
2023/12/26 01:02:29;;;;;;;2.88;1.65;;;;;;;10.61;100.00;100471.78;5079798;28;20244;-66
2023/12/26 01:05:17;;;;;;;3.88;1.75;;;;;;;10.64;100.00;100476.66;5057462;28;20406;-66
2023/12/26 01:08:08;;;;;;;1.73;1.00;;;;;;;10.62;100.00;100475.31;5077540;28;20341;-67
2023/12/26 01:10:56;;;;;;;3.63;1.52;;;;;;;10.61;100.00;100470.97;5058116;28;20040;-67
2023/12/26 01:13:45;;;;;;;2.20;1.23;;;;;;;10.62;100.00;100473.41;5078563;28;20396;-63
2023/12/26 01:16:33;;;;;;;2.15;1.38;;;;;;;10.63;100.00;100471.47;5098295;28;20095;-67
2023/12/26 01:19:21;;;;;;;3.00;1.60;;;;;;;10.61;100.00;100479.94;5064645;28;20047;-66
2023/12/26 01:22:09;;;;;;;1.63;0.98;;;;;;;10.60;100.00;100475.59;5078415;28;20040;-64
2023/12/26 01:24:58;;;;;;;2.75;1.42;;;;;;;10.60;100.00;100480.22;5097087;28;20062;-65
2023/12/26 01:27:47;;;;;;;2.13;1.20;;;;;;;10.59;100.00;100473.97;5098145;28;20097;-65
2023/12/26 01:30:38;;;;;;;1.50;1.00;;;;;;;10.57;100.00;100486.22;5084169;28;20038;-65
2023/12/26 01:33:26;;;;;;;2.22;1.30;;;;;;;10.58;100.00;100485.13;5105746;28;20048;-66
2023/12/26 01:36:15;;;;;;;2.00;1.67;;;;;;;10.57;100.00;100487.03;5107221;28;20520;-63
2023/12/26 01:39:03;;;;;;;3.05;1.63;;;;;;;10.57;100.00;100486.22;5078604;28;20043;-65
2023/12/26 01:41:51;;;;;;;2.95;1.42;;;;;;;10.57;100.00;100489.75;5092571;28;20044;-66
2023/12/26 01:44:40;;;;;;;1.90;1.17;;;;;;;10.55;100.00;100500.13;5092213;28;20539;-67
2023/12/26 01:47:28;;;;;;;3.13;1.25;;;;;;;10.56;100.00;100500.94;5077209;28;20054;-66
2023/12/26 01:50:16;;;;;;;1.95;1.25;;;;;;;10.56;100.00;100504.50;5089444;28;20047;-65
2023/12/26 01:53:04;;;;;;;1.85;1.23;;;;;;;10.56;100.00;100501.75;5097699;28;20032;-65
2023/12/26 01:55:53;;;;;;;3.35;1.40;;;;;;;10.60;100.00;100502.81;5081804;28;20077;-66
2023/12/26 01:58:43;;;;;;;2.20;1.13;;;;;;;10.58;100.00;100510.47;5083096;28;20438;-64
2023/12/26 02:01:31;;;;;;;1.85;1.05;;;;;;;10.58;100.00;100510.47;5102382;28;20391;-66
2023/12/26 02:04:19;;;;;;;3.58;1.35;;;;;;;10.59;100.00;100514.03;5112928;28;20058;-69
2023/12/26 02:07:08;;;;;;;2.63;1.50;;;;;;;10.58;100.00;100510.47;5095312;28;20032;-64
2023/12/26 02:10:00;;;;;;;2.28;1.20;;;;;;;10.60;100.00;100507.47;5070627;28;20551;-65
2023/12/26 02:12:48;;;;;;;3.28;1.42;;;;;;;10.58;100.00;100517.81;5100777;28;20043;-66
2023/12/26 02:15:36;;;;;;;2.33;1.00;;;;;;;10.58;100.00;100515.09;5097943;28;20044;-66
2023/12/26 02:18:25;;;;;;;2.40;1.30;;;;;;;10.59;100.00;100517.56;5083543;28;20101;-66
2023/12/26 02:21:13;;;;;;;2.80;1.52;;;;;;;10.60;100.00;100521.91;5084842;28;20438;-64
2023/12/26 02:24:03;;;;;;;2.53;1.27;;;;;;;10.59;100.00;100525.72;5094514;28;20474;-66
2023/12/26 02:26:55;;;;;;;3.15;1.48;;;;;;;10.58;100.00;100536.88;5081870;28;20112;-65
2023/12/26 02:29:49;;;;;;;1.27;1.08;;;;;;;10.57;100.00;100535.28;5079752;28;20562;-65
2023/12/26 02:32:39;;;;;;;2.95;1.38;;;;;;;10.59;100.00;100522.19;5031053;28;20032;-66
2023/12/26 02:35:28;;;;;;;1.83;1.23;;;;;;;10.58;100.00;100521.38;5074687;28;20372;-63
2023/12/26 02:38:16;;;;;;;2.47;1.48;;;;;;;10.58;100.00;100526.00;5105455;28;20434;-64
2023/12/26 02:41:04;;;;;;;2.53;1.58;;;;;;;10.57;100.00;100524.38;5071067;28;20418;-68
2023/12/26 02:43:52;;;;;;;1.77;1.35;;;;;;;10.58;100.00;100523.25;5097644;28;20458;-63
2023/12/26 02:46:40;;;;;;;1.63;1.30;;;;;;;10.56;100.00;100520.84;5092970;28;20557;-65
2023/12/26 02:49:28;;;;;;;3.25;1.30;;;;;;;10.56;100.00;100518.13;5087049;28;20140;-66
2023/12/26 02:52:17;;;;;;;3.30;1.48;;;;;;;10.57;100.00;100530.63;5099047;28;20040;-66
2023/12/26 02:55:06;;;;;;;3.45;1.45;;;;;;;10.56;100.00;100531.72;5084642;28;20036;-66
2023/12/26 02:57:54;;;;;;;3.75;1.23;;;;;;;10.56;100.00;100541.78;5082223;28;20087;-66
2023/12/26 03:00:42;;;;;;;2.10;1.23;;;;;;;10.55;100.00;100546.44;5082799;28;20505;-67
2023/12/26 03:03:30;;;;;;;2.45;1.45;;;;;;;10.56;100.00;100553.53;5069736;28;20048;-64
2023/12/26 03:06:18;;;;;;;3.60;1.48;;;;;;;10.54;100.00;100574.78;5098913;28;20044;-67
2023/12/26 03:09:06;;;;;;;2.30;1.40;;;;;;;10.52;100.00;100579.69;5099502;28;20050;-66
2023/12/26 03:11:54;;;;;;;2.78;1.30;;;;;;;10.51;100.00;100591.69;5082209;28;20484;-66
2023/12/26 03:14:42;;;;;;;1.20;1.10;;;;;;;10.51;100.00;100579.94;5070946;28;20040;-66
2023/12/26 03:17:30;;;;;;;3.15;1.40;;;;;;;10.53;100.00;100589.47;5100255;28;20043;-66
2023/12/26 03:20:19;;;;;;;3.22;1.30;;;;;;;10.52;100.00;100581.59;5079410;28;20400;-66
2023/12/26 03:23:07;;;;;;;1.55;1.20;;;;;;;10.53;100.00;100591.38;5067158;28;20494;-66
2023/12/26 03:25:55;;;;;;;2.50;1.10;;;;;;;10.52;100.00;100595.22;5079344;28;20124;-67
2023/12/26 03:28:43;;;;;;;1.23;1.10;;;;;;;10.52;100.00;100595.22;5079660;28;20051;-66
2023/12/26 03:31:33;;;;;;;3.72;1.75;;;;;;;10.50;100.00;100605.56;5080528;28;20044;-67
2023/12/26 03:34:21;;;;;;;4.03;1.70;;;;;;;10.52;100.00;100604.19;5079613;28;20036;-66
2023/12/26 03:37:10;;;;;;;4.85;1.65;;;;;;;10.49;100.00;100599.28;5094850;28;20052;-66
2023/12/26 03:39:58;;;;;;;5.55;1.52;;;;;;;10.49;100.00;100604.75;5079881;28;20036;-67
2023/12/26 03:42:50;;;;;;;6.53;1.60;;;;;;;10.48;100.00;100602.28;5095361;28;20418;-66
2023/12/26 03:45:38;;;;;;;3.95;1.58;;;;;;;10.46;100.00;100610.72;5093847;28;20117;-66
2023/12/26 03:48:26;;;;;;;5.95;1.85;;;;;;;10.47;100.00;100598.75;5079561;28;20036;-66
2023/12/26 03:51:15;;;;;;;4.38;2.13;;;;;;;10.45;100.00;100609.91;5079078;28;20492;-66
2023/12/26 03:54:03;;;;;;;8.45;2.13;;;;;;;10.42;100.00;100610.47;5076123;28;20040;-66
2023/12/26 03:56:51;;;;;;;9.77;2.13;;;;;;;10.41;100.00;100621.63;5064184;28;20059;-66
2023/12/26 03:59:40;;;;;;;5.30;1.88;;;;;;;10.42;100.00;100609.66;5095746;28;20055;-67
2023/12/26 04:02:28;;;;;;;11.30;2.50;;;;;;;10.43;100.00;100616.72;5093408;28;20040;-65
2023/12/26 04:05:16;;;;;;;6.07;2.30;;;;;;;10.43;100.00;100611.28;5064212;28;20400;-66
2023/12/26 04:08:04;;;;;;;10.15;2.28;;;;;;;10.43;100.00;100624.88;5077879;28;20499;-66
2023/12/26 04:10:53;;;;;;;8.38;2.15;;;;;;;10.39;100.00;100627.34;5077738;28;20361;-67
2023/12/26 04:13:41;;;;;;;8.68;2.45;;;;;;;10.40;100.00;100631.69;5074664;28;20055;-66
2023/12/26 04:16:29;;;;;;;5.88;1.95;;;;;;;10.41;100.00;100633.34;5066560;28;20501;-65
2023/12/26 04:19:17;;;;;;;9.43;2.30;;;;;;;10.37;100.00;100655.94;5079499;28;20496;-66
2023/12/26 04:22:05;;;;;;;5.65;2.47;;;;;;;10.38;100.00;100663.03;5077836;28;20484;-67
2023/12/26 04:24:53;;;;;;;9.80;2.55;;;;;;;10.35;100.00;100675.28;5048052;28;20032;-67
2023/12/26 04:27:41;;;;;;;6.72;2.10;;;;;;;10.35;100.00;100669.81;5086321;28;20035;-67
2023/12/26 04:30:30;;;;;;;7.03;2.38;;;;;;;10.36;100.00;100665.19;5113172;28;20068;-66
2023/12/26 04:33:19;;;;;;;10.15;2.30;;;;;;;10.35;100.00;100669.00;5065087;28;20054;-66
2023/12/26 04:36:08;;;;;;;11.75;2.70;;;;;;;10.34;100.00;100683.69;5065162;28;20110;-67
2023/12/26 04:38:56;;;;;;;8.07;2.40;;;;;;;10.33;100.00;100671.19;5065234;28;20371;-65
2023/12/26 04:41:47;;;;;;;10.80;2.65;;;;;;;10.31;100.00;100695.13;5084053;28;20133;-66
2023/12/26 04:44:36;;;;;;;9.57;2.65;;;;;;;10.33;100.00;100684.81;5065132;28;20162;-66
2023/12/26 04:47:24;;;;;;;9.82;2.45;;;;;;;10.33;100.00;100690.25;5093165;28;20036;-64
2023/12/26 04:50:12;;;;;;;11.52;2.47;;;;;;;10.28;100.00;100685.59;5064255;28;20042;-67
2023/12/26 04:53:01;;;;;;;6.28;2.08;;;;;;;10.27;100.00;100716.63;5076169;28;20450;-66
2023/12/26 04:55:49;;;;;;;11.68;2.60;;;;;;;10.22;100.00;100733.78;5077731;28;20032;-65
2023/12/26 04:58:37;;;;;;;11.85;2.60;;;;;;;10.18;100.00;100729.94;5078125;28;20388;-67
2023/12/26 05:01:25;;;;;;;10.30;2.58;;;;;;;10.14;100.00;100739.72;5065378;28;20055;-66
2023/12/26 05:04:13;;;;;;;9.93;2.78;;;;;;;10.11;100.00;100745.72;5090507;28;20036;-66
2023/12/26 05:07:02;;;;;;;7.65;2.58;;;;;;;10.09;100.00;100747.88;5077634;28;20051;-66
2023/12/26 05:09:51;;;;;;;11.48;2.70;;;;;;;10.04;100.00;100747.84;5076272;28;20040;-66
2023/12/26 05:12:39;;;;;;;7.22;2.15;;;;;;;10.01;100.00;100751.94;5076376;28;20040;-66
2023/12/26 05:15:27;;;;;;;10.07;2.65;;;;;;;9.98;100.00;100767.97;5058206;28;20496;-64
2023/12/26 05:18:16;;;;;;;7.18;2.55;;;;;;;9.96;100.00;100781.03;5057578;28;20193;-65
2023/12/26 05:21:04;;;;;;;8.35;2.47;;;;;;;9.92;100.00;100777.19;5075288;28;20070;-66
2023/12/26 05:23:52;;;;;;;8.60;2.55;;;;;;;9.90;100.00;100765.75;5076387;28;20168;-65
2023/12/26 05:26:41;;;;;;;11.43;2.45;;;;;;;9.88;100.00;100770.63;5091838;28;20193;-67
2023/12/26 05:29:29;;;;;;;11.27;2.47;;;;;;;9.86;100.00;100778.25;5052065;28;20044;-67
2023/12/26 05:32:17;;;;;;;8.65;2.30;;;;;;;9.82;100.00;100775.25;5078474;28;20395;-67
2023/12/26 05:35:06;;;;;;;10.80;2.78;;;;;;;9.79;100.00;100779.31;5062080;28;20508;-66
2023/12/26 05:37:54;;;;;;;11.25;2.80;;;;;;;9.77;100.00;100784.19;5063985;28;20047;-66
2023/12/26 05:40:42;;;;;;;6.55;2.00;;;;;;;9.76;100.00;100793.44;5080842;28;20040;-64
2023/12/26 05:43:31;;;;;;;6.85;2.20;;;;;;;9.71;100.00;100795.31;5088462;28;20492;-67
2023/12/26 05:46:20;;;;;;;8.27;2.67;;;;;;;9.65;100.00;100813.50;5079132;28;20040;-65
2023/12/26 05:49:08;;;;;;;13.48;2.65;;;;;;;9.63;100.00;100810.22;5077995;28;20047;-65
2023/12/26 05:51:57;;;;;;;8.70;2.30;;;;;;;9.64;100.00;100817.28;5086606;28;20043;-66
2023/12/26 05:54:45;;;;;;;10.65;2.70;;;;;;;9.62;100.00;100816.75;5097334;28;20419;-64
2023/12/26 05:57:33;;;;;;;8.70;2.58;;;;;;;9.63;100.00;100826.56;5077378;28;20119;-65
2023/12/26 06:00:21;;;;;;;8.20;2.40;;;;;;;9.65;100.00;100838.00;5092125;28;20131;-64
2023/12/26 06:03:10;;;;;;;10.88;2.88;;;;;;;9.61;100.00;100850.47;5091930;28;20036;-64
2023/12/26 06:05:59;;;;;;;14.07;3.00;;;;;;;9.55;100.00;100843.38;5075042;28;20040;-65
2023/12/26 06:08:48;;;;;;;11.88;3.10;;;;;;;9.54;100.00;100849.88;5064573;28;20036;-65
2023/12/26 06:11:36;;;;;;;11.20;2.95;;;;;;;9.52;100.00;100852.03;5076873;28;20177;-65
2023/12/26 06:14:24;;;;;;;10.23;2.45;;;;;;;9.49;100.00;100849.84;5077882;28;20457;-66
2023/12/26 06:17:13;;;;;;;12.85;3.00;;;;;;;9.45;100.00;100851.44;5061941;28;20040;-65
2023/12/26 06:20:01;;;;;;;11.38;3.15;;;;;;;9.43;100.00;100862.59;5076645;28;20038;-66
2023/12/26 06:22:49;;;;;;;9.98;2.70;;;;;;;9.41;100.00;100878.34;5094869;28;20386;-66
2023/12/26 06:25:38;;;;;;;8.23;2.60;;;;;;;9.43;100.00;100878.91;5112034;28;20052;-66
2023/12/26 06:28:26;;;;;;;11.70;2.60;;;;;;;9.44;100.00;100887.88;5057962;28;20492;-66
2023/12/26 06:31:14;;;;;;;10.20;3.05;;;;;;;9.45;100.00;100886.78;5042994;28;20052;-66
2023/12/26 06:34:03;;;;;;;12.30;3.25;;;;;;;9.42;100.00;100879.97;5076323;28;20156;-67
2023/12/26 06:36:51;;;;;;;10.25;2.58;;;;;;;9.38;100.00;100874.22;5075113;28;20121;-67
2023/12/26 06:39:39;;;;;;;13.50;3.22;;;;;;;9.36;100.00;100881.81;5092099;28;20052;-66
2023/12/26 06:42:27;;;;;;;8.68;2.88;;;;;;;9.37;100.00;100888.06;5076219;28;20032;-66
2023/12/26 06:45:16;;;;;;;14.70;3.28;;;;;;;9.33;100.00;100901.38;5064157;28;20036;-65
2023/12/26 06:48:04;;;;;;;10.65;2.70;;;;;;;9.31;100.00;100911.69;5077512;28;20032;-65
2023/12/26 06:50:55;;;;;;;14.82;3.65;;;;;;;9.30;100.00;100910.03;5067640;28;20348;-66
2023/12/26 06:53:44;;;;;;;10.77;3.28;;;;;;;9.30;100.00;100920.09;5076725;28;20055;-67
2023/12/26 06:56:32;;;;;;;9.35;2.50;;;;;;;9.26;100.00;100918.97;5070904;28;20056;-65
2023/12/26 06:59:20;;;;;;;10.68;2.97;;;;;;;9.24;100.00;100918.41;5077810;28;20066;-65
2023/12/26 07:02:08;;;;;;;12.30;2.85;;;;;;;9.23;100.00;100928.44;5082961;28;20043;-60
2023/12/26 07:04:58;;;;;;;10.38;3.15;;;;;;;9.23;100.00;100938.50;5097094;28;20391;-66
2023/12/26 07:07:47;;;;;;;12.60;3.55;;;;;;;9.22;100.00;100939.59;5107678;28;20483;-65
2023/12/26 07:10:36;;;;;;;11.95;2.58;;;;;;;9.23;100.00;100957.53;5082955;28;20476;-66
2023/12/26 07:13:23;;;;;;;9.93;3.38;;;;;;;9.20;100.00;100967.03;5094825;28;20093;-66
2023/12/26 07:16:12;;;;;;;10.35;3.00;;;;;;;9.19;100.00;100981.72;5067013;28;20082;-65
2023/12/26 07:19:00;;;;;;;12.90;3.05;;;;;;;9.18;100.00;100982.78;5095221;28;20471;-67
2023/12/26 07:21:48;;;;;;;8.48;2.38;;;;;;;9.16;100.00;100995.78;5094371;28;20044;-65
2023/12/26 07:24:36;;;;;;;8.80;2.78;;;;;;;9.12;100.00;100984.63;5078486;28;20139;-66
2023/12/26 07:27:24;;;;;;;12.23;3.35;;;;;;;9.15;100.00;100992.25;5095631;28;20079;-65
2023/12/26 07:30:12;;;;;;;9.98;2.70;;;;;;;9.19;100.00;100992.59;5077719;28;20434;-65
2023/12/26 07:33:01;;;;;;;17.75;2.95;;;;;;;9.15;100.00;101005.03;5079817;28;20071;-67
2023/12/26 07:35:49;;;;;;;12.38;2.65;;;;;;;9.13;100.00;101012.63;5077479;28;20042;-66
2023/12/26 07:38:37;;;;;;;10.48;2.58;;;;;;;9.11;100.00;101010.16;5058897;28;20090;-66
2023/12/26 07:41:25;;;;;;;10.93;3.10;;;;;;;9.09;100.00;101011.47;5060145;28;20087;-65
2023/12/26 07:44:13;;;;;;;13.05;3.35;;;;;;;9.13;100.00;101024.31;5090880;28;20117;-66
2023/12/26 07:47:01;;;;;;;10.02;2.80;;;;;;;9.13;100.00;101023.50;5095058;28;20051;-66
2023/12/26 07:49:50;;;;;;;11.52;3.00;;;;;;;9.15;100.00;101033.03;5093495;28;20044;-66
2023/12/26 07:52:38;;;;;;;11.68;3.22;;;;;;;9.16;100.00;101033.84;5081323;28;20055;-67
2023/12/26 07:55:26;;;;;;;10.43;2.75;;;;;;;9.17;100.00;101039.03;5080674;28;20174;-65
2023/12/26 07:58:14;;;;;;;9.63;2.72;;;;;;;9.17;100.00;101030.88;5079134;28;20066;-66
2023/12/26 08:01:03;;;;;;;12.95;3.10;;;;;;;9.17;100.00;101038.22;5075881;28;20044;-67
2023/12/26 08:03:51;;;;;;;10.75;3.60;;;;;;;9.18;100.00;101042.56;5094348;28;20040;-66
2023/12/26 08:06:39;;;;;;;11.52;3.28;;;;;;;9.19;100.00;101063.28;5078188;28;20514;-65
2023/12/26 08:09:27;;;;;;;14.35;3.38;;;;;;;9.20;100.00;101064.91;4388886;28;10001173;-66
2023/12/26 08:12:15;;;;;;;9.73;2.83;;;;;;;9.21;100.00;101063.81;5090820;28;20044;-67
2023/12/26 08:15:03;;;;;;;6.68;2.30;;;;;;;9.23;100.00;101077.16;5091985;28;20040;-67
2023/12/26 08:17:51;;;;;;;15.00;4.18;;;;;;;9.23;100.00;101066.28;5074217;28;20044;-68
2023/12/26 08:20:40;;;;;;;9.75;3.38;;;;;;;9.21;100.00;101074.69;5042279;28;20518;-68
2023/12/26 08:23:28;;;;;;;12.18;3.72;;;;;;;9.20;100.00;101085.84;5055715;28;20446;-67
2023/12/26 08:26:16;;;;;;;10.48;2.88;;;;;;;9.18;100.00;101086.06;5054551;28;20485;-67
2023/12/26 08:29:04;;;;;;;11.60;3.17;;;;;;;9.15;100.00;101090.13;5083681;28;20040;-67
2023/12/26 08:31:53;;;;;;;13.40;3.25;;;;;;;9.20;100.00;101094.81;5075704;28;20040;-66
2023/12/26 08:34:44;;;;;;;12.75;3.50;;;;;;;9.20;100.00;101100.25;5089480;28;20051;-66
2023/12/26 08:37:32;;;;;;;13.20;3.35;;;;;;;9.19;100.00;101109.50;5090871;28;20087;-67
2023/12/26 08:40:22;;;;;;;10.23;2.90;;;;;;;9.18;100.00;101108.66;5103109;28;20213;-67
2023/12/26 08:43:10;;;;;;;12.70;3.42;;;;;;;9.20;100.00;101116.56;5094860;28;20174;-68
2023/12/26 08:45:59;;;;;;;13.38;3.17;;;;;;;9.15;100.00;101119.22;5108525;28;20498;-67
2023/12/26 08:48:47;;;;;;;15.18;3.15;;;;;;;9.13;100.00;101126.78;5096958;28;20044;-67
2023/12/26 08:51:39;;;;;;;14.68;3.60;;;;;;;9.11;100.00;101134.38;5057869;28;20036;-67
2023/12/26 08:54:27;;;;;;;14.30;3.67;;;;;;;9.08;100.00;101152.00;5079306;28;20147;-67
2023/12/26 08:57:15;;;;;;;11.07;3.30;;;;;;;9.07;100.00;101153.09;5075286;28;20090;-68
2023/12/26 09:00:04;;;;;;;12.02;3.22;;;;;;;9.06;100.00;101147.88;5089868;28;20055;-67
2023/12/26 09:02:53;;;;;;;18.02;4.00;;;;;;;9.06;100.00;101143.28;5068982;28;20182;-67
2023/12/26 09:05:53;;;;;;;14.60;3.53;;;;;;;9.07;100.00;101152.28;5060006;28;20040;-67
2023/12/26 09:08:42;;;;;;;10.80;3.30;;;;;;;9.08;100.00;101157.44;5054750;28;20059;-67
2023/12/26 09:11:30;;;;;;;16.23;3.72;;;;;;;9.10;100.00;101165.34;5064797;28;20039;-67
2023/12/26 09:14:18;;;;;;;11.20;3.05;;;;;;;9.07;100.00;101171.31;5074848;28;20044;-68
2023/12/26 09:17:06;;;;;;;16.63;3.90;;;;;;;9.05;100.00;101176.97;5076033;28;20097;-67
2023/12/26 09:19:54;;;;;;;13.20;3.72;;;;;;;9.07;100.00;101179.44;5076920;28;20222;-67
2023/12/26 09:22:42;;;;;;;15.95;3.92;;;;;;;9.10;100.00;101187.09;5076314;28;20440;-67
2023/12/26 09:25:31;;;;;;;18.13;3.60;;;;;;;9.08;100.00;101200.13;5088739;28;20036;-67
2023/12/26 09:28:19;;;;;;;13.25;3.55;;;;;;;9.08;100.00;101200.13;5089422;28;20040;-66
2023/12/26 09:31:08;;;;;;;14.27;3.78;;;;;;;9.06;100.00;101204.97;5088871;28;20036;-67
2023/12/26 09:33:56;;;;;;;16.38;3.95;;;;;;;9.04;100.00;101207.09;5091088;28;20504;-67
2023/12/26 09:36:44;;;;;;;16.85;4.40;;;;;;;9.03;100.00;101222.59;5088461;28;20044;-67
2023/12/26 09:39:32;;;;;;;13.70;3.58;;;;;;;8.99;100.00;101228.78;5071708;28;20178;-67
2023/12/26 09:42:22;;;;;;;16.15;4.28;;;;;;;8.98;100.00;101233.41;5073087;28;20127;-67
2023/12/26 09:45:11;;;;;;;17.83;3.92;;;;;;;8.99;100.00;101237.75;5073733;28;20241;-65
2023/12/26 09:48:00;;;;;;;14.85;3.58;;;;;;;9.00;100.00;101263.06;5069266;28;20117;-66
2023/12/26 09:50:51;;;;;;;15.90;3.60;;;;;;;9.01;100.00;101256.53;5054377;28;20040;-66
2023/12/26 09:53:44;;;;;;;14.02;4.55;;;;;;;9.02;100.00;101250.00;5072414;28;20119;-67
2023/12/26 09:56:32;;;;;;;13.65;3.80;;;;;;;8.98;100.00;101265.19;5073166;28;20077;-66
2023/12/26 09:59:24;;;;;;;17.35;3.88;;;;;;;9.01;100.00;101278.28;5073207;28;20077;-66
2023/12/26 10:02:13;;;;;;;13.68;3.70;;;;;;;9.00;100.00;101284.81;5062487;28;20594;-67
2023/12/26 10:05:01;;;;;;;17.25;3.75;;;;;;;9.02;100.00;101285.34;5065004;28;20037;-67
2023/12/26 10:07:49;;;;;;;16.33;4.13;;;;;;;9.02;100.00;101288.91;5052470;28;20051;-67
2023/12/26 10:10:38;;;;;;;15.82;3.47;;;;;;;9.03;100.00;101295.16;5088700;28;20072;-67
2023/12/26 10:13:26;;;;;;;12.93;3.80;;;;;;;9.03;100.00;101295.16;5076973;28;20052;-67
2023/12/26 10:16:14;;;;;;;16.98;3.67;;;;;;;9.03;100.00;101300.59;5068476;28;20523;-66
2023/12/26 10:19:02;;;;;;;14.50;3.45;;;;;;;9.03;100.00;101293.28;5071847;28;20044;-67
2023/12/26 10:21:51;;;;;;;14.05;3.45;;;;;;;9.06;100.00;101297.38;5091347;28;20131;-66
2023/12/26 10:24:40;;;;;;;16.27;3.83;;;;;;;9.07;100.00;101297.16;5100410;28;20120;-67
2023/12/26 10:27:28;;;;;;;14.38;4.10;;;;;;;9.13;100.00;101300.78;5108305;28;20039;-68
2023/12/26 10:30:18;;;;;;;14.23;3.60;;;;;;;9.14;100.00;101303.25;5058345;28;20089;-67
2023/12/26 10:33:06;;;;;;;15.57;3.88;;;;;;;9.19;100.00;101294.34;5067919;28;20047;-68
2023/12/26 10:36:12;;;;;;;12.65;3.70;;;;;;;9.22;100.00;101299.28;5083483;28;20048;-67
2023/12/26 10:39:01;;;;;;;16.10;3.50;;;;;;;9.22;100.00;101321.03;5076005;28;20043;-67
2023/12/26 10:41:49;;;;;;;12.27;3.70;;;;;;;9.20;100.00;101303.34;5078637;28;20050;-66
2023/12/26 10:45:04;;;;;;;15.10;3.80;;;;;;;9.22;100.00;101321.03;5080016;28;20078;-67
2023/12/26 10:47:55;;;;;;;16.63;3.88;;;;;;;9.22;100.00;101334.63;5064765;28;20054;-67
2023/12/26 10:50:43;;;;;;;15.43;4.15;;;;;;;9.20;100.00;101325.91;5078567;28;20423;-68
2023/12/26 10:53:48;;;;;;;18.17;4.25;;;;;;;9.18;100.00;101325.31;5092751;28;20499;-67
2023/12/26 10:56:37;;;;;;;13.55;3.80;;;;;;;9.22;100.00;101325.66;5072698;28;20127;-67
2023/12/26 13:53:42;;;;;;;15.50;3.97;;;;;;;9.17;100.00;101497.69;5086960;28;20361;-67
2023/12/26 13:56:30;;;;;;;13.52;3.28;;;;;;;9.16;100.00;101517.75;5087253;28;20278;-66
2023/12/26 13:59:20;;;;;;;17.10;4.15;;;;;;;9.15;100.00;101527.81;5059097;28;20292;-65
2023/12/26 14:02:08;;;;;;;16.10;3.85;;;;;;;9.11;100.00;101526.66;5051598;28;20041;-66
2023/12/26 14:04:56;;;;;;;16.90;4.15;;;;;;;9.09;100.00;101522.50;5046092;28;20103;-66
2023/12/26 14:07:44;;;;;;;19.38;3.97;;;;;;;9.06;100.00;101528.44;5052431;28;20044;-66
2023/12/26 14:10:32;;;;;;;16.48;3.92;;;;;;;9.05;100.00;101534.97;5068094;28;20044;-66
2023/12/26 14:13:21;;;;;;;21.77;4.32;;;;;;;9.07;100.00;101535.53;5067729;28;20044;-66
2023/12/26 14:16:09;;;;;;;18.73;4.15;;;;;;;9.06;100.00;101539.31;5068295;28;20041;-66
2023/12/26 14:19:00;;;;;;;15.80;3.97;;;;;;;9.06;100.00;101544.75;5072266;28;20041;-66
2023/12/26 14:21:48;;;;;;;14.98;3.60;;;;;;;9.04;100.00;101542.25;5020591;28;20508;-66
2023/12/26 14:24:36;;;;;;;17.25;3.83;;;;;;;9.03;100.00;101550.69;5048695;28;20047;-63
2023/12/26 14:27:24;;;;;;;18.60;4.05;;;;;;;9.03;100.00;101547.97;5054016;28;20055;-65
2023/12/26 14:30:12;;;;;;;16.38;4.10;;;;;;;9.02;100.00;101565.31;5064448;28;20036;-65
2023/12/26 14:33:00;;;;;;;15.27;3.60;;;;;;;8.99;100.00;101557.66;5073194;28;20044;-66
2023/12/26 14:35:50;;;;;;;11.80;3.47;;;;;;;8.98;100.00;101575.03;5021432;28;20048;-66
2023/12/26 14:38:38;;;;;;;17.77;3.72;;;;;;;8.95;100.00;101587.22;5056053;28;20456;-66
2023/12/26 14:41:26;;;;;;;13.98;3.42;;;;;;;8.99;100.00;101582.13;5058389;28;20401;-65
2023/12/26 14:44:14;;;;;;;16.00;3.33;;;;;;;8.96;100.00;101586.94;5049015;28;20051;-65
2023/12/26 14:47:02;;;;;;;15.38;3.97;;;;;;;8.95;100.00;101593.47;5034510;28;20037;-65
2023/12/26 14:49:51;;;;;;;14.30;3.80;;;;;;;8.94;100.00;101591.78;5051997;28;20590;-66
2023/12/26 14:52:39;;;;;;;12.98;3.03;;;;;;;8.92;100.00;101598.53;5069690;28;20053;-67
2023/12/26 14:55:27;;;;;;;19.02;3.58;;;;;;;8.88;100.00;101598.19;5053156;28;20205;-66
2023/12/26 14:58:15;;;;;;;11.05;3.35;;;;;;;8.85;100.00;101609.56;5071719;28;20056;-64
2023/12/26 15:01:03;;;;;;;12.70;3.67;;;;;;;8.86;100.00;101616.63;5068184;28;20060;-66
2023/12/26 15:03:52;;;;;;;12.23;3.42;;;;;;;8.86;100.00;101622.06;5054945;28;20496;-65
2023/12/26 15:06:41;;;;;;;14.57;3.28;;;;;;;8.85;100.00;101623.13;5069086;28;20044;-65
2023/12/26 15:09:29;;;;;;;12.32;3.03;;;;;;;8.85;100.00;101630.44;5075150;28;20050;-66
2023/12/26 15:12:17;;;;;;;13.07;3.08;;;;;;;8.83;100.00;101627.97;5071493;28;20044;-66
2023/12/26 15:15:06;;;;;;;12.73;3.22;;;;;;;8.83;100.00;101627.16;5093198;28;20039;-65
2023/12/26 15:17:54;;;;;;;10.05;3.45;;;;;;;8.85;100.00;101620.41;5090994;28;20040;-65
2023/12/26 15:20:43;;;;;;;12.32;3.67;;;;;;;8.84;100.00;101621.47;5089051;28;20048;-66
2023/12/26 15:23:31;;;;;;;12.73;3.35;;;;;;;8.83;100.00;101627.97;5090053;28;20299;-66
2023/12/26 15:26:21;;;;;;;13.27;3.13;;;;;;;8.82;100.00;101626.31;5092501;28;20051;-66
2023/12/26 15:29:09;;;;;;;9.75;3.47;;;;;;;8.84;100.00;101639.66;5100900;28;20040;-66
2023/12/26 15:31:57;;;;;;;15.73;3.70;;;;;;;8.83;100.00;101644.28;5073195;28;20044;-65
2023/12/26 15:34:45;;;;;;;13.55;3.85;;;;;;;8.82;100.00;101648.03;5100124;28;20035;-66
2023/12/26 15:37:33;;;;;;;11.98;3.35;;;;;;;8.82;100.00;101653.47;5115112;28;20036;-64
2023/12/26 15:40:21;;;;;;;10.88;2.85;;;;;;;8.81;100.00;101662.72;5104576;28;20032;-64
2023/12/26 15:43:09;;;;;;;14.45;4.10;;;;;;;8.81;100.00;101668.16;5096351;28;20040;-66
2023/12/26 15:45:57;;;;;;;14.77;3.60;;;;;;;8.81;100.00;101670.88;5070562;28;20032;-65
2023/12/26 15:48:46;;;;;;;10.07;3.30;;;;;;;8.81;100.00;101679.00;5070762;28;20536;-66